Time;durP1;ratioP1;P1;durP2;ratioP2;P2;SDS_P1;SDS_P2;PMS_P1;PMS_P2;Temp;Humidity;BMP_temperature;BMP_pressure;BME280_temperature;BME280_humidity;BME280_pressure;Samples;Min_cycle;Max_cycle;Signal;HPM_P1;HPM_P2
2021/11/08 00:00:29;;;;;;;0.82;0.20;;;;;;;;;;5035973;28;20018;-62
2021/11/08 00:02:56;;;;;;;2.38;0.30;;;;;;;;;;5035562;28;20530;-62
2021/11/08 00:05:22;;;;;;;1.65;0.52;;;;;;;;;;5035529;28;20025;-62
2021/11/08 00:07:52;;;;;;;0.63;0.10;;;;;;;;;;5035720;28;20025;-62
2021/11/08 00:10:17;;;;;;;0.77;0.17;;;;;;;;;;5035749;28;20017;-62
2021/11/08 00:12:43;;;;;;;0.35;0.10;;;;;;;;;;5035731;28;20017;-62
2021/11/08 00:15:10;;;;;;;2.60;0.25;;;;;;;;;;5035702;28;20507;-61
2021/11/08 00:17:49;;;;;;;0.22;0.10;;;;;;;;;;5034447;28;20020;-62
2021/11/08 00:20:26;;;;;;;2.35;0.22;;;;;;;;;;5035665;28;20096;-62
2021/11/08 00:22:51;;;;;;;2.67;0.30;;;;;;;;;;5035177;28;20017;-61
2021/11/08 00:25:17;;;;;;;2.63;0.40;;;;;;;;;;5035569;28;20036;-62
2021/11/08 00:27:43;;;;;;;1.95;0.20;;;;;;;;;;5035315;28;20020;-62
2021/11/08 00:30:10;;;;;;;1.65;0.40;;;;;;;;;;5035429;28;20026;-62
2021/11/08 00:32:36;;;;;;;0.73;0.20;;;;;;;;;;5035552;28;20026;-62
2021/11/08 00:35:01;;;;;;;3.13;0.40;;;;;;;;;;5035075;28;20021;-62
2021/11/08 00:37:26;;;;;;;2.63;0.30;;;;;;;;;;5035331;28;20025;-62
2021/11/08 00:39:52;;;;;;;1.33;0.13;;;;;;;;;;5035031;28;20093;-62
2021/11/08 00:42:17;;;;;;;1.77;0.30;;;;;;;;;;5035271;28;20763;-61
2021/11/08 00:44:42;;;;;;;1.15;0.43;;;;;;;;;;5034958;28;20060;-62
2021/11/08 00:47:08;;;;;;;0.77;0.10;;;;;;;;;;5035099;28;20710;-61
2021/11/08 00:49:35;;;;;;;1.45;0.20;;;;;;;;;;5035239;28;20025;-62
2021/11/08 00:52:00;;;;;;;1.50;0.20;;;;;;;;;;5034710;28;20083;-62
2021/11/08 00:54:26;;;;;;;0.30;0.10;;;;;;;;;;5035013;28;20057;-62
2021/11/08 00:56:55;;;;;;;3.08;0.30;;;;;;;;;;5034716;28;20444;-62
2021/11/08 00:59:21;;;;;;;0.95;0.10;;;;;;;;;;5034963;28;20045;-62
2021/11/08 01:01:48;;;;;;;0.68;0.10;;;;;;;;;;5034514;28;20478;-62
2021/11/08 01:04:18;;;;;;;1.05;0.10;;;;;;;;;;5034863;28;20040;-62
2021/11/08 01:06:44;;;;;;;3.60;0.50;;;;;;;;;;5034737;28;20021;-62
2021/11/08 01:09:09;;;;;;;0.80;0.20;;;;;;;;;;5034509;28;20028;-62
2021/11/08 01:11:34;;;;;;;0.85;0.47;;;;;;;;;;5034339;28;20026;-61
2021/11/08 01:14:00;;;;;;;0.90;0.20;;;;;;;;;;5034344;28;20021;-61
2021/11/08 01:16:26;;;;;;;2.00;0.45;;;;;;;;;;5034369;28;20055;-61
2021/11/08 01:18:53;;;;;;;1.45;0.57;;;;;;;;;;5034324;28;20014;-62
2021/11/08 01:21:18;;;;;;;0.70;0.20;;;;;;;;;;5034500;28;20117;-62
2021/11/08 01:23:44;;;;;;;0.20;0.10;;;;;;;;;;5034020;28;20543;-62
2021/11/08 01:26:11;;;;;;;0.90;0.40;;;;;;;;;;5034340;28;20063;-62
2021/11/08 01:28:44;;;;;;;1.90;0.20;;;;;;;;;;5033839;28;20041;-62
2021/11/08 01:31:10;;;;;;;0.50;0.03;;;;;;;;;;5034087;28;20028;-62
2021/11/08 01:33:37;;;;;;;1.52;0.63;;;;;;;;;;5033976;28;20029;-62
2021/11/08 01:38:37;;;;;;;0.55;0.10;;;;;;;;;;5034302;28;20084;-62
2021/11/08 01:41:02;;;;;;;3.67;0.68;;;;;;;;;;5034143;28;20468;-62
2021/11/08 01:43:28;;;;;;;0.35;0.13;;;;;;;;;;5034192;28;20032;-61
2021/11/08 01:45:53;;;;;;;1.27;0.17;;;;;;;;;;5033837;28;20025;-62
2021/11/08 01:48:19;;;;;;;1.55;0.32;;;;;;;;;;5033951;28;20514;-62
2021/11/08 01:50:44;;;;;;;1.08;0.10;;;;;;;;;;5033900;28;20476;-62
2021/11/08 01:53:09;;;;;;;0.82;0.20;;;;;;;;;;5033955;28;20017;-62
2021/11/08 01:55:34;;;;;;;1.08;0.10;;;;;;;;;;5033887;28;20503;-62
2021/11/08 01:58:00;;;;;;;1.45;0.30;;;;;;;;;;5033360;28;20152;-62
2021/11/08 02:00:26;;;;;;;1.63;0.50;;;;;;;;;;5033843;28;20041;-62
2021/11/08 02:02:52;;;;;;;0.85;0.20;;;;;;;;;;5059477;23;20092;-62
2021/11/08 02:05:18;;;;;;;0.32;0.20;;;;;;;;;;5053588;28;20087;-62
2021/11/08 02:07:45;;;;;;;1.75;0.28;;;;;;;;;;5053598;28;20045;-63
2021/11/08 02:10:12;;;;;;;0.60;0.20;;;;;;;;;;5053462;28;20051;-62
2021/11/08 02:12:38;;;;;;;2.50;0.55;;;;;;;;;;5053352;28;20395;-62
2021/11/08 02:15:05;;;;;;;2.47;0.17;;;;;;;;;;5053491;28;20027;-62
2021/11/08 02:17:31;;;;;;;2.75;0.25;;;;;;;;;;5053210;28;20116;-61
2021/11/08 02:19:56;;;;;;;1.95;0.22;;;;;;;;;;5052863;28;20092;-62
2021/11/08 02:22:23;;;;;;;0.90;0.10;;;;;;;;;;5053377;28;20104;-62
2021/11/08 02:24:48;;;;;;;1.77;0.20;;;;;;;;;;5053144;28;20024;-62
2021/11/08 02:27:16;;;;;;;1.02;0.30;;;;;;;;;;5053254;28;20009;-62
2021/11/08 02:29:42;;;;;;;1.13;0.10;;;;;;;;;;5053217;28;20029;-62
2021/11/08 02:32:08;;;;;;;0.88;0.20;;;;;;;;;;5034982;28;20017;-62
2021/11/08 02:34:33;;;;;;;1.85;0.20;;;;;;;;;;5053275;28;20009;-61
2021/11/08 02:36:58;;;;;;;0.45;0.20;;;;;;;;;;5053060;28;20058;-61
2021/11/08 02:39:32;;;;;;;1.25;0.20;;;;;;;;;;5052403;28;20025;-61
2021/11/08 02:41:58;;;;;;;0.85;0.10;;;;;;;;;;5053247;28;20548;-62
2021/11/08 02:44:23;;;;;;;0.63;0.28;;;;;;;;;;5053098;28;20368;-61
2021/11/08 02:46:52;;;;;;;0.93;0.32;;;;;;;;;;5052818;28;20461;-61
2021/11/08 02:49:21;;;;;;;3.00;0.30;;;;;;;;;;5052854;28;20025;-62
2021/11/08 02:51:53;;;;;;;1.90;0.30;;;;;;;;;;5052963;28;20479;-62
2021/11/08 02:54:27;;;;;;;0.85;0.20;;;;;;;;;;5053046;28;20017;-62
2021/11/08 02:56:52;;;;;;;1.88;0.28;;;;;;;;;;5052560;28;20044;-62
2021/11/08 02:59:17;;;;;;;1.15;0.30;;;;;;;;;;5052742;28;20357;-62
2021/11/08 03:01:46;;;;;;;0.53;0.20;;;;;;;;;;5052450;28;20136;-62
2021/11/08 03:04:16;;;;;;;0.63;0.10;;;;;;;;;;5052827;28;20421;-61
2021/11/08 03:06:41;;;;;;;2.10;0.20;;;;;;;;;;5052757;28;20045;-61
2021/11/08 03:09:11;;;;;;;1.43;0.37;;;;;;;;;;5052798;28;20056;-62
2021/11/08 03:11:36;;;;;;;2.20;0.60;;;;;;;;;;5052655;28;20253;-62
2021/11/08 03:14:06;;;;;;;1.38;0.10;;;;;;;;;;5052525;28;20025;-61
2021/11/08 03:16:45;;;;;;;0.40;0.10;;;;;;;;;;5052727;28;20214;-62
2021/11/08 03:19:24;;;;;;;0.75;0.30;;;;;;;;;;5052831;28;20017;-63
2021/11/08 03:21:52;;;;;;;2.25;0.77;;;;;;;;;;5052470;28;20055;-62
2021/11/08 03:30:05;;;;;;;0.45;0.15;;;;;;;;;;4952379;29;20184;-62
2021/11/08 03:32:31;;;;;;;2.15;0.20;;;;;;;;;;4952571;29;20102;-62
2021/11/08 03:34:59;;;;;;;0.70;0.20;;;;;;;;;;4952117;29;20128;-62
2021/11/08 03:37:26;;;;;;;1.15;0.20;;;;;;;;;;4952685;29;20027;-62
2021/11/08 03:39:51;;;;;;;1.77;0.50;;;;;;;;;;4952311;29;20027;-62
2021/11/08 03:42:17;;;;;;;1.45;0.20;;;;;;;;;;4952364;29;20506;-62
2021/11/08 03:44:43;;;;;;;2.47;0.30;;;;;;;;;;4952213;29;20031;-62
2021/11/08 03:47:09;;;;;;;0.28;0.20;;;;;;;;;;4952366;29;20695;-62
2021/11/08 03:49:34;;;;;;;2.05;0.22;;;;;;;;;;4952469;29;20023;-62
2021/11/08 03:52:00;;;;;;;2.50;0.20;;;;;;;;;;4954432;28;20142;-62
2021/11/08 03:54:25;;;;;;;1.23;0.20;;;;;;;;;;4955667;29;20355;-62
2021/11/08 03:56:52;;;;;;;1.48;0.30;;;;;;;;;;4955084;29;20035;-62
2021/11/08 03:59:17;;;;;;;0.45;0.15;;;;;;;;;;4955964;29;20527;-61
2021/11/08 04:01:42;;;;;;;2.00;0.20;;;;;;;;;;4955285;29;20059;-62
2021/11/08 04:04:08;;;;;;;2.20;0.30;;;;;;;;;;4955357;29;20027;-62
2021/11/08 04:06:35;;;;;;;2.10;0.22;;;;;;;;;;5008158;28;20033;-62
2021/11/08 04:09:00;;;;;;;1.63;0.30;;;;;;;;;;5015916;28;20025;-62
2021/11/08 04:11:27;;;;;;;1.55;0.20;;;;;;;;;;5031426;28;20030;-62
2021/11/08 04:13:54;;;;;;;1.52;0.57;;;;;;;;;;5015552;28;20030;-62
2021/11/08 04:16:19;;;;;;;1.25;0.28;;;;;;;;;;5016091;28;20018;-61
2021/11/08 04:18:51;;;;;;;0.63;0.10;;;;;;;;;;5015706;28;20024;-62
2021/11/08 04:21:17;;;;;;;0.95;0.10;;;;;;;;;;5016062;28;20380;-61
2021/11/08 04:23:43;;;;;;;0.17;0.10;;;;;;;;;;5015734;28;20056;-62
2021/11/08 04:26:11;;;;;;;1.42;0.22;;;;;;;;;;5015571;28;20373;-61
2021/11/08 04:28:37;;;;;;;2.60;0.30;;;;;;;;;;5015786;28;20018;-61
2021/11/08 04:31:02;;;;;;;1.48;0.20;;;;;;;;;;5015517;28;20026;-62
2021/11/08 04:38:44;;;;;;;1.92;0.30;;;;;;;;;;5022736;28;20021;-62
2021/11/08 04:41:19;;;;;;;0.82;0.45;;;;;;;;;;5035132;28;20025;-61
2021/11/08 04:46:32;;;;;;;0.10;0.10;;;;;;;;;;5035296;28;20120;-61
2021/11/08 04:52:14;;;;;;;0.57;0.20;;;;;;;;;;5035525;28;20456;-62
2021/11/08 04:57:18;;;;;;;0.10;0.10;;;;;;;;;;5034834;28;20060;-62
2021/11/08 05:21:36;;;;;;;2.13;0.40;;;;;;;;;;5054652;28;20257;-62
2021/11/08 05:24:25;;;;;;;3.08;0.30;;;;;;;;;;5054272;28;20253;-61
2021/11/08 05:29:58;;;;;;;2.05;0.40;;;;;;;;;;5054511;28;20029;-61
2021/11/08 05:32:24;;;;;;;2.13;0.30;;;;;;;;;;5054301;28;20040;-62
2021/11/08 05:34:49;;;;;;;0.68;0.10;;;;;;;;;;5053505;28;20036;-61
2021/11/08 05:37:15;;;;;;;0.52;0.20;;;;;;;;;;5053411;28;20029;-61
2021/11/08 05:39:46;;;;;;;1.05;0.10;;;;;;;;;;5054002;28;20021;-61
2021/11/08 05:42:12;;;;;;;1.02;0.25;;;;;;;;;;5054099;28;20115;-61
2021/11/08 05:44:40;;;;;;;0.88;0.10;;;;;;;;;;5053797;28;20024;-61
2021/11/08 05:47:05;;;;;;;1.45;0.20;;;;;;;;;;5053779;28;20013;-61
2021/11/08 05:49:30;;;;;;;0.95;0.45;;;;;;;;;;5054068;28;20056;-61
2021/11/08 05:51:55;;;;;;;3.07;0.30;;;;;;;;;;5053597;28;20387;-61
2021/11/08 05:54:21;;;;;;;1.27;0.28;;;;;;;;;;5035933;28;20266;-61
2021/11/08 05:57:03;;;;;;;0.35;0.10;;;;;;;;;;5053451;28;20059;-62
2021/11/08 06:51:24;;;;;;;1.08;0.30;;;;;;;;;;5053111;28;20389;-61
2021/11/08 06:53:54;;;;;;;2.17;0.38;;;;;;;;;;5052815;28;20029;-61
2021/11/08 06:56:25;;;;;;;0.73;0.20;;;;;;;;;;5053083;28;20017;-61
2021/11/08 06:58:50;;;;;;;1.45;0.10;;;;;;;;;;5052860;28;20027;-61
2021/11/08 07:01:15;;;;;;;2.15;0.38;;;;;;;;;;5052541;28;20045;-61
2021/11/08 07:03:41;;;;;;;2.72;0.43;;;;;;;;;;5052853;28;20478;-61
2021/11/08 07:06:06;;;;;;;1.35;0.10;;;;;;;;;;5034673;28;20025;-61
2021/11/08 07:08:31;;;;;;;0.88;0.10;;;;;;;;;;5052656;28;20032;-61
2021/11/08 07:10:57;;;;;;;2.50;0.40;;;;;;;;;;5052602;28;20051;-61
2021/11/08 07:13:22;;;;;;;0.80;0.10;;;;;;;;;;5052912;28;20732;-61
2021/11/08 07:15:48;;;;;;;0.40;0.10;;;;;;;;;;5052435;28;20021;-61
2021/11/08 07:18:13;;;;;;;3.70;0.50;;;;;;;;;;5052977;28;20017;-61
2021/11/08 07:20:38;;;;;;;1.80;0.60;;;;;;;;;;5052611;28;20071;-61
2021/11/08 07:23:04;;;;;;;0.80;0.10;;;;;;;;;;5052685;28;20021;-61
2021/11/08 07:25:30;;;;;;;2.20;0.10;;;;;;;;;;5052783;28;20075;-62
2021/11/08 07:27:55;;;;;;;0.73;0.13;;;;;;;;;;5056447;28;20112;-61
2021/11/08 07:30:21;;;;;;;1.10;0.20;;;;;;;;;;5056324;28;20517;-61
2021/11/08 07:32:47;;;;;;;1.65;0.20;;;;;;;;;;5056272;28;20009;-61
2021/11/08 07:35:12;;;;;;;0.93;0.20;;;;;;;;;;5056504;28;20105;-61
2021/11/08 07:37:37;;;;;;;1.87;0.33;;;;;;;;;;5055529;28;20104;-62
2021/11/08 07:40:03;;;;;;;1.43;0.20;;;;;;;;;;5056386;28;20739;-61
2021/11/08 07:42:28;;;;;;;1.30;0.20;;;;;;;;;;5056344;28;20258;-61
2021/11/08 07:44:53;;;;;;;2.17;0.30;;;;;;;;;;5055949;28;20551;-61
2021/11/08 07:47:19;;;;;;;2.55;0.10;;;;;;;;;;5056320;28;20257;-61
2021/11/08 07:49:44;;;;;;;0.22;0.22;;;;;;;;;;5056055;28;20024;-61
2021/11/08 07:52:09;;;;;;;1.38;0.10;;;;;;;;;;5056095;28;20017;-61
2021/11/08 07:54:36;;;;;;;3.03;0.70;;;;;;;;;;5056335;28;20384;-61
2021/11/08 07:57:02;;;;;;;0.75;0.20;;;;;;;;;;5055964;28;20028;-61
2021/11/08 07:59:28;;;;;;;0.70;0.10;;;;;;;;;;5056020;28;20021;-61
2021/11/08 08:01:53;;;;;;;1.42;0.20;;;;;;;;;;5055622;28;20044;-61
2021/11/08 08:04:18;;;;;;;1.37;0.13;;;;;;;;;;5055824;28;20024;-61
2021/11/08 08:06:44;;;;;;;1.95;0.20;;;;;;;;;;5055688;28;20732;-61
2021/11/08 08:09:09;;;;;;;0.73;0.10;;;;;;;;;;5055820;28;20021;-61
2021/11/08 08:11:35;;;;;;;1.63;0.10;;;;;;;;;;5055933;28;20017;-61
2021/11/08 08:14:01;;;;;;;1.85;0.30;;;;;;;;;;5055416;28;20028;-61
2021/11/08 08:16:26;;;;;;;2.28;0.20;;;;;;;;;;5055689;28;20025;-61
2021/11/08 08:18:54;;;;;;;0.60;0.25;;;;;;;;;;5055454;28;20025;-61
2021/11/08 08:21:20;;;;;;;4.07;0.30;;;;;;;;;;5055719;28;20036;-62
2021/11/08 08:23:47;;;;;;;0.65;0.20;;;;;;;;;;5055288;28;20013;-61
2021/11/08 08:26:13;;;;;;;2.72;0.20;;;;;;;;;;5055126;28;20032;-61
2021/11/08 08:28:39;;;;;;;1.63;0.33;;;;;;;;;;5055337;28;20024;-62
2021/11/08 08:31:04;;;;;;;1.40;0.40;;;;;;;;;;5055348;28;20246;-61
2021/11/08 08:33:31;;;;;;;1.48;0.20;;;;;;;;;;5055423;28;20021;-61
2021/11/08 08:35:56;;;;;;;2.28;0.52;;;;;;;;;;5054999;28;20032;-61
2021/11/08 08:38:22;;;;;;;0.50;0.10;;;;;;;;;;5054075;28;20033;-61
2021/11/08 08:40:49;;;;;;;0.52;0.08;;;;;;;;;;5055096;28;20013;-61
2021/11/08 08:43:15;;;;;;;3.22;0.45;;;;;;;;;;5055216;28;20143;-61
2021/11/08 08:45:41;;;;;;;0.80;0.08;;;;;;;;;;5054984;28;20017;-61
2021/11/08 08:48:06;;;;;;;4.97;0.30;;;;;;;;;;5055055;28;20013;-61
2021/11/08 08:50:32;;;;;;;1.60;0.10;;;;;;;;;;5054841;28;20024;-61
2021/11/08 08:52:57;;;;;;;1.50;0.60;;;;;;;;;;5054757;28;20094;-61
2021/11/08 08:55:23;;;;;;;1.20;0.13;;;;;;;;;;5054877;28;20047;-61
2021/11/08 08:57:48;;;;;;;1.77;0.22;;;;;;;;;;5054691;28;20021;-61
2021/11/08 09:00:16;;;;;;;0.43;0.10;;;;;;;;;;5054524;28;20021;-61
2021/11/08 09:02:41;;;;;;;1.75;0.30;;;;;;;;;;5054607;28;20526;-61
2021/11/08 09:05:06;;;;;;;1.63;0.20;;;;;;;;;;5054540;28;20029;-61
2021/11/08 09:07:33;;;;;;;2.47;0.20;;;;;;;;;;5054846;28;20478;-61
2021/11/08 09:09:58;;;;;;;0.35;0.10;;;;;;;;;;5054306;28;20024;-61
2021/11/08 09:12:23;;;;;;;3.55;0.22;;;;;;;;;;5054344;28;20074;-63
2021/11/08 09:14:48;;;;;;;0.50;0.17;;;;;;;;;;5054738;28;20147;-63
2021/11/08 09:17:13;;;;;;;2.28;0.47;;;;;;;;;;5054314;28;20254;-63
2021/11/08 09:19:39;;;;;;;1.02;0.20;;;;;;;;;;5054646;28;20021;-63
2021/11/08 09:22:05;;;;;;;0.47;0.20;;;;;;;;;;5054422;28;20447;-62
2021/11/08 09:24:30;;;;;;;1.77;0.50;;;;;;;;;;5036578;28;20020;-62
2021/11/08 09:26:55;;;;;;;1.93;0.30;;;;;;;;;;5053849;28;20021;-63
2021/11/08 09:29:21;;;;;;;1.50;0.10;;;;;;;;;;5054025;28;20254;-63
2021/11/08 09:31:47;;;;;;;1.65;0.13;;;;;;;;;;5053701;28;20017;-63
2021/11/08 09:34:15;;;;;;;1.65;0.40;;;;;;;;;;5054312;28;20357;-62
2021/11/08 09:36:40;;;;;;;2.72;0.20;;;;;;;;;;5054227;28;20491;-62
2021/11/08 09:39:09;;;;;;;1.17;0.10;;;;;;;;;;5054009;28;20147;-63
2021/11/08 09:41:35;;;;;;;1.45;0.00;;;;;;;;;;5054205;28;20017;-63
2021/11/08 09:44:01;;;;;;;0.73;0.08;;;;;;;;;;5053519;28;20025;-63
2021/11/08 09:46:26;;;;;;;0.82;0.20;;;;;;;;;;5053962;28;20025;-62
2021/11/08 09:48:52;;;;;;;1.33;0.35;;;;;;;;;;5053316;28;20021;-63
2021/11/08 09:51:17;;;;;;;0.82;0.10;;;;;;;;;;5053968;28;20127;-63
2021/11/08 09:53:44;;;;;;;1.95;0.43;;;;;;;;;;5053646;28;20116;-62
2021/11/08 09:56:09;;;;;;;0.82;0.20;;;;;;;;;;5053838;28;20032;-62
2021/11/08 09:58:35;;;;;;;1.42;0.10;;;;;;;;;;5053754;28;20013;-63
2021/11/08 10:01:04;;;;;;;2.28;0.55;;;;;;;;;;5053330;28;20055;-62
2021/11/08 10:03:31;;;;;;;2.25;0.82;;;;;;;;;;5053681;28;20032;-63
2021/11/08 10:05:57;;;;;;;2.05;0.28;;;;;;;;;;5053384;28;20459;-62
2021/11/08 10:08:26;;;;;;;0.47;0.20;;;;;;;;;;5053695;28;20104;-62
2021/11/08 10:10:53;;;;;;;0.85;0.17;;;;;;;;;;5053084;28;20025;-63
2021/11/08 10:13:20;;;;;;;0.40;0.10;;;;;;;;;;5053665;28;20020;-63
2021/11/08 10:15:52;;;;;;;2.65;0.30;;;;;;;;;;5053440;28;20067;-62
2021/11/08 10:18:18;;;;;;;0.45;0.03;;;;;;;;;;5053409;28;20021;-62
2021/11/08 10:20:46;;;;;;;0.77;0.20;;;;;;;;;;5035213;28;20032;-63
2021/11/08 10:23:13;;;;;;;1.60;0.45;;;;;;;;;;5053352;28;20067;-63
2021/11/08 10:25:40;;;;;;;1.67;0.20;;;;;;;;;;5053303;28;20021;-63
2021/11/08 10:28:15;;;;;;;0.10;0.10;;;;;;;;;;5053094;28;20013;-62
2021/11/08 10:30:40;;;;;;;1.10;0.10;;;;;;;;;;5053213;28;20025;-62
2021/11/08 10:33:19;;;;;;;1.20;0.22;;;;;;;;;;5052990;28;20448;-63
2021/11/08 10:35:47;;;;;;;1.30;0.30;;;;;;;;;;5053033;28;20070;-63
2021/11/08 10:38:14;;;;;;;2.75;0.47;;;;;;;;;;5052938;28;20488;-63
2021/11/08 10:40:42;;;;;;;1.17;0.15;;;;;;;;;;5053149;28;20028;-62
2021/11/08 10:43:08;;;;;;;0.85;0.43;;;;;;;;;;5053081;28;20021;-63
2021/11/08 10:45:36;;;;;;;1.50;0.20;;;;;;;;;;5053049;28;20017;-63
2021/11/08 10:48:04;;;;;;;4.88;0.88;;;;;;;;;;5052922;28;20016;-63
2021/11/08 10:50:40;;;;;;;1.85;0.20;;;;;;;;;;5052827;28;20352;-63
2021/11/08 10:53:05;;;;;;;1.63;0.43;;;;;;;;;;5052987;28;20527;-62
2021/11/08 10:55:31;;;;;;;2.58;0.75;;;;;;;;;;5053307;28;20144;-63
2021/11/08 10:58:06;;;;;;;2.72;0.70;;;;;;;;;;5052882;28;20021;-63
2021/11/08 11:00:31;;;;;;;2.50;0.38;;;;;;;;;;5052876;28;20017;-62
2021/11/08 11:02:57;;;;;;;1.33;0.20;;;;;;;;;;5056649;28;20049;-62
2021/11/08 11:05:22;;;;;;;0.30;0.00;;;;;;;;;;5039071;28;20122;-63
2021/11/08 11:07:47;;;;;;;0.77;0.17;;;;;;;;;;5056799;28;20527;-63
2021/11/08 11:10:14;;;;;;;1.30;0.38;;;;;;;;;;5056859;28;20017;-63
2021/11/08 11:12:44;;;;;;;1.90;0.10;;;;;;;;;;5056727;28;20025;-63
2021/11/08 11:15:10;;;;;;;1.00;0.17;;;;;;;;;;5056759;28;20021;-62
2021/11/08 11:17:41;;;;;;;1.65;0.17;;;;;;;;;;5056761;28;20497;-63
2021/11/08 11:20:06;;;;;;;4.10;0.20;;;;;;;;;;5056635;28;20021;-63
2021/11/08 11:22:33;;;;;;;1.33;0.30;;;;;;;;;;5056450;28;20082;-63
2021/11/08 11:24:58;;;;;;;1.02;0.40;;;;;;;;;;5056477;28;20021;-62
2021/11/08 11:27:23;;;;;;;1.38;0.20;;;;;;;;;;5056291;28;20017;-63
2021/11/08 11:29:49;;;;;;;1.87;0.30;;;;;;;;;;5056589;28;20104;-63
2021/11/08 11:32:19;;;;;;;1.33;0.22;;;;;;;;;;5056346;28;20295;-63
2021/11/08 11:34:44;;;;;;;2.30;0.30;;;;;;;;;;5056160;28;20043;-62
2021/11/08 11:37:17;;;;;;;1.10;0.20;;;;;;;;;;5056495;28;20074;-62
2021/11/08 11:39:43;;;;;;;0.25;0.03;;;;;;;;;;5055512;28;20074;-63
2021/11/08 11:42:08;;;;;;;2.92;0.43;;;;;;;;;;5056376;28;20017;-63
2021/11/08 11:44:35;;;;;;;0.90;0.13;;;;;;;;;;5056312;28;20013;-63
2021/11/08 11:47:00;;;;;;;2.42;0.60;;;;;;;;;;5055722;28;20021;-63
2021/11/08 11:49:25;;;;;;;2.72;0.20;;;;;;;;;;5056204;28;20029;-63
2021/11/08 11:51:54;;;;;;;1.13;0.10;;;;;;;;;;5055682;28;20017;-63
2021/11/08 11:54:21;;;;;;;1.95;0.40;;;;;;;;;;5055014;28;20403;-63
2021/11/08 11:56:48;;;;;;;2.15;0.35;;;;;;;;;;5050765;28;20100;-62
2021/11/08 11:59:14;;;;;;;1.25;0.10;;;;;;;;;;5055649;28;20070;-62
2021/11/08 12:01:40;;;;;;;2.13;0.30;;;;;;;;;;5036918;28;20045;-63
2021/11/08 12:04:05;;;;;;;1.77;0.30;;;;;;;;;;5055726;28;20017;-63
2021/11/08 12:06:32;;;;;;;0.73;0.20;;;;;;;;;;5037940;28;20109;-63
2021/11/08 12:08:59;;;;;;;2.13;0.30;;;;;;;;;;5054594;28;20024;-62
2021/11/08 12:11:37;;;;;;;1.02;0.20;;;;;;;;;;5055196;28;20096;-63
2021/11/08 12:14:04;;;;;;;0.57;0.10;;;;;;;;;;5054979;28;20120;-63
2021/11/08 12:16:32;;;;;;;2.35;0.47;;;;;;;;;;5055708;28;20025;-63
2021/11/08 12:18:59;;;;;;;1.85;0.20;;;;;;;;;;5054595;28;20024;-62
2021/11/08 12:21:32;;;;;;;0.77;0.20;;;;;;;;;;5058605;28;20021;-63
2021/11/08 12:23:58;;;;;;;1.35;0.20;;;;;;;;;;5054141;28;20021;-63
2021/11/08 12:26:26;;;;;;;1.55;0.20;;;;;;;;;;5053834;28;20070;-63
2021/11/08 12:28:51;;;;;;;1.17;0.22;;;;;;;;;;5055294;28;20036;-63
2021/11/08 12:31:19;;;;;;;0.57;0.05;;;;;;;;;;5055267;28;20017;-62
2021/11/08 12:33:56;;;;;;;1.35;0.10;;;;;;;;;;5055503;28;20528;-63
2021/11/08 12:36:22;;;;;;;0.60;0.13;;;;;;;;;;5052777;28;20024;-63
2021/11/08 12:38:56;;;;;;;1.17;0.47;;;;;;;;;;5051877;28;20465;-63
2021/11/08 12:41:27;;;;;;;1.80;0.10;;;;;;;;;;5036496;28;20037;-63
2021/11/08 12:43:56;;;;;;;1.80;0.28;;;;;;;;;;5054631;28;20035;-63
2021/11/08 12:46:23;;;;;;;1.73;0.57;;;;;;;;;;5053970;28;20025;-63
2021/11/08 12:48:49;;;;;;;1.77;0.40;;;;;;;;;;5054696;28;20510;-63
2021/11/08 12:51:16;;;;;;;0.70;0.20;;;;;;;;;;5053187;28;20021;-62
2021/11/08 12:53:59;;;;;;;0.40;0.15;;;;;;;;;;5053805;28;20044;-62
2021/11/08 12:56:26;;;;;;;0.20;0.17;;;;;;;;;;5053944;28;20028;-62
2021/11/08 12:58:56;;;;;;;1.85;0.15;;;;;;;;;;5052811;28;20387;-63
2021/11/08 13:01:24;;;;;;;2.75;0.43;;;;;;;;;;5060203;28;20036;-63
2021/11/08 13:03:52;;;;;;;1.77;0.20;;;;;;;;;;5034866;28;20024;-63
2021/11/08 13:06:28;;;;;;;2.45;0.20;;;;;;;;;;5052186;28;20025;-61
2021/11/08 13:09:03;;;;;;;0.95;0.50;;;;;;;;;;5052620;28;20048;-61
2021/11/08 13:11:28;;;;;;;;;;;;;;;;;;5052298;28;20029;-61
2021/11/08 13:13:56;;;;;;;1.40;0.60;;;;;;;;;;5053864;28;19905;-61
2021/11/08 13:16:30;;;;;;;1.48;0.10;;;;;;;;;;5055581;28;20265;-61
2021/11/08 13:19:01;;;;;;;2.00;0.32;;;;;;;;;;5063682;28;20055;-61
2021/11/08 13:21:26;;;;;;;1.30;0.10;;;;;;;;;;5053994;28;20036;-61
2021/11/08 13:23:53;;;;;;;1.98;0.20;;;;;;;;;;5053635;28;20025;-61
2021/11/08 13:26:18;;;;;;;0.20;0.10;;;;;;;;;;5035478;28;20112;-62
2021/11/08 13:28:43;;;;;;;1.27;0.43;;;;;;;;;;5053444;28;20100;-61
2021/11/08 13:31:11;;;;;;;1.25;0.20;;;;;;;;;;5054140;28;20032;-61
2021/11/08 13:33:41;;;;;;;1.17;0.32;;;;;;;;;;5054240;28;20017;-61
2021/11/08 13:36:06;;;;;;;1.00;0.20;;;;;;;;;;5053004;28;20063;-61
2021/11/08 13:38:36;;;;;;;2.10;0.22;;;;;;;;;;5051911;28;20021;-61
2021/11/08 13:41:15;;;;;;;0.90;0.10;;;;;;;;;;5058809;28;20112;-61
2021/11/08 13:43:43;;;;;;;0.30;0.20;;;;;;;;;;5072963;28;20020;-62
2021/11/08 13:46:20;;;;;;;1.70;0.32;;;;;;;;;;5062428;28;20066;-61
2021/11/08 13:48:50;;;;;;;1.33;0.30;;;;;;;;;;5051827;28;20025;-61
2021/11/08 13:51:23;;;;;;;0.70;0.43;;;;;;;;;;5052100;28;20049;-61
2021/11/08 13:53:52;;;;;;;1.45;0.50;;;;;;;;;;5053255;28;20052;-61
2021/11/08 13:56:18;;;;;;;1.48;0.10;;;;;;;;;;5053705;28;20018;-61
2021/11/08 13:58:51;;;;;;;2.55;0.15;;;;;;;;;;5052649;28;20013;-61
2021/11/08 14:01:17;;;;;;;1.05;0.20;;;;;;;;;;5051589;28;20055;-61
2021/11/08 14:03:44;;;;;;;0.40;0.28;;;;;;;;;;5051739;28;20399;-61
2021/11/08 14:06:10;;;;;;;1.63;0.13;;;;;;;;;;5050926;28;20380;-61
2021/11/08 14:08:43;;;;;;;0.95;0.30;;;;;;;;;;5052169;28;20025;-61
2021/11/08 14:11:09;;;;;;;0.90;0.10;;;;;;;;;;5051069;28;20036;-61
2021/11/08 14:13:37;;;;;;;0.98;0.20;;;;;;;;;;5052009;28;20017;-61
2021/11/08 14:16:05;;;;;;;1.08;0.30;;;;;;;;;;5051811;28;20190;-62
2021/11/08 14:18:31;;;;;;;1.00;0.15;;;;;;;;;;5051343;28;20116;-61
2021/11/08 14:21:22;;;;;;;1.83;0.30;;;;;;;;;;5052159;28;20159;-61
2021/11/08 14:23:53;;;;;;;2.67;0.25;;;;;;;;;;5046256;28;20029;-61
2021/11/08 14:26:20;;;;;;;3.42;0.77;;;;;;;;;;5051593;28;20025;-61
2021/11/08 14:28:46;;;;;;;3.35;0.82;;;;;;;;;;5052544;28;20024;-63
2021/11/08 14:31:38;;;;;;;1.90;0.30;;;;;;;;;;5051380;28;20013;-63
2021/11/08 14:34:07;;;;;;;3.58;0.20;;;;;;;;;;5050203;28;20048;-62
2021/11/08 14:36:39;;;;;;;1.52;0.40;;;;;;;;;;5051851;28;20025;-66
2021/11/08 14:39:08;;;;;;;0.85;0.00;;;;;;;;;;5052199;28;20375;-64
2021/11/08 14:41:34;;;;;;;2.35;0.40;;;;;;;;;;5052203;28;20068;-66
2021/11/08 14:44:07;;;;;;;3.78;0.20;;;;;;;;;;5051663;28;20029;-66
2021/11/08 14:46:40;;;;;;;0.40;0.10;;;;;;;;;;5047098;28;20025;-63
2021/11/08 14:49:15;;;;;;;0.80;0.13;;;;;;;;;;5035048;28;20016;-67
2021/11/08 14:51:40;;;;;;;1.73;0.10;;;;;;;;;;5052687;28;20067;-68
2021/11/08 14:54:06;;;;;;;0.80;0.57;;;;;;;;;;5051879;28;20021;-67
2021/11/08 14:56:36;;;;;;;0.77;0.10;;;;;;;;;;5051824;28;20023;-66
2021/11/08 14:59:07;;;;;;;0.80;0.22;;;;;;;;;;5051962;28;20494;-69
2021/11/08 15:01:33;;;;;;;1.42;0.10;;;;;;;;;;5052299;28;20045;-67
2021/11/08 15:03:59;;;;;;;0.20;0.05;;;;;;;;;;5034980;28;20415;-68
2021/11/08 15:06:25;;;;;;;0.93;0.20;;;;;;;;;;5052411;28;20072;-68
2021/11/08 15:08:59;;;;;;;1.08;0.47;;;;;;;;;;5050971;28;20501;-68
2021/11/08 15:11:28;;;;;;;1.40;0.38;;;;;;;;;;5051385;28;20013;-69
2021/11/08 15:14:00;;;;;;;2.53;0.25;;;;;;;;;;5051470;28;20021;-67
2021/11/08 15:16:26;;;;;;;1.17;0.20;;;;;;;;;;5050197;28;20024;-69
2021/11/08 15:19:00;;;;;;;2.33;0.50;;;;;;;;;;5036077;28;20471;-69
2021/11/08 15:21:32;;;;;;;1.00;0.20;;;;;;;;;;5042749;28;20032;-67
2021/11/08 15:24:04;;;;;;;1.27;0.30;;;;;;;;;;5062970;28;20025;-68
2021/11/08 15:26:30;;;;;;;1.27;0.10;;;;;;;;;;5052001;28;20403;-68
2021/11/08 15:28:56;;;;;;;0.35;0.08;;;;;;;;;;5050596;28;20070;-67
2021/11/08 15:31:26;;;;;;;1.98;0.20;;;;;;;;;;5033992;28;20399;-68
2021/11/08 15:33:53;;;;;;;2.03;0.50;;;;;;;;;;5051157;28;20025;-68
2021/11/08 15:36:22;;;;;;;0.75;0.10;;;;;;;;;;5050899;28;20040;-67
2021/11/08 15:38:49;;;;;;;1.67;0.20;;;;;;;;;;5051394;28;20013;-67
2021/11/08 15:41:17;;;;;;;1.13;0.25;;;;;;;;;;5051768;28;20377;-69
2021/11/08 15:43:44;;;;;;;0.57;0.00;;;;;;;;;;5051766;28;20017;-68
2021/11/08 15:46:15;;;;;;;2.42;0.10;;;;;;;;;;5047468;28;20031;-67
2021/11/08 15:48:42;;;;;;;1.45;0.30;;;;;;;;;;5055049;28;20096;-68
2021/11/08 15:51:09;;;;;;;1.20;0.13;;;;;;;;;;5055260;28;20451;-69
2021/11/08 15:53:35;;;;;;;0.80;0.10;;;;;;;;;;5055382;28;20020;-68
2021/11/08 15:56:01;;;;;;;2.38;0.38;;;;;;;;;;5037113;28;20013;-67
2021/11/08 15:58:26;;;;;;;3.10;0.52;;;;;;;;;;5055423;28;20042;-68
2021/11/08 16:00:52;;;;;;;1.10;0.10;;;;;;;;;;5055085;28;20064;-66
2021/11/08 16:03:18;;;;;;;0.98;0.30;;;;;;;;;;5055359;28;20049;-67
2021/11/08 16:05:43;;;;;;;0.65;0.30;;;;;;;;;;5055180;28;20035;-70
2021/11/08 16:08:09;;;;;;;0.43;0.20;;;;;;;;;;5058408;28;20100;-69
2021/11/08 16:10:35;;;;;;;2.13;0.20;;;;;;;;;;5038137;28;20467;-67
2021/11/08 16:13:00;;;;;;;1.92;0.25;;;;;;;;;;5064636;28;20025;-68
2021/11/08 16:15:25;;;;;;;0.82;0.10;;;;;;;;;;5075485;28;20021;-68
2021/11/08 16:17:51;;;;;;;1.23;0.20;;;;;;;;;;5075622;28;20481;-68
2021/11/08 16:20:21;;;;;;;0.63;0.32;;;;;;;;;;5075599;28;20024;-67
2021/11/08 16:22:48;;;;;;;1.50;0.20;;;;;;;;;;5075726;28;20025;-68